createdAt,value
2022-08-05T00:02:07.945Z,3.58
2022-08-05T00:04:40.924Z,4.82
2022-08-05T00:07:21.837Z,4.47
2022-08-05T00:10:01.974Z,4.45
2022-08-05T00:12:31.433Z,5.00
2022-08-05T00:15:54.007Z,4.28
2022-08-05T00:17:50.136Z,4.07
2022-08-05T00:20:20.385Z,4.88
2022-08-05T00:22:57.383Z,4.32
2022-08-05T00:25:45.610Z,4.40
2022-08-05T00:28:16.307Z,4.28
2022-08-05T00:31:04.208Z,4.82
2022-08-05T00:34:53.626Z,4.60
2022-08-05T00:37:13.093Z,4.53
2022-08-05T00:39:16.869Z,4.00
2022-08-05T00:44:30.856Z,4.65
2022-08-05T00:47:04.041Z,4.40
2022-08-05T00:49:51.045Z,4.20
2022-08-05T00:52:28.200Z,3.97
2022-08-05T00:54:58.618Z,4.40
2022-08-05T00:57:38.319Z,4.20
2022-08-05T01:00:18.015Z,4.07
2022-08-05T01:02:50.105Z,4.10
2022-08-05T01:05:19.703Z,4.43
2022-08-05T01:08:40.112Z,4.65
2022-08-05T01:10:51.501Z,4.72
2022-08-05T01:13:57.558Z,4.25
2022-08-05T01:16:44.129Z,4.57
2022-08-05T01:19:46.264Z,4.68
2022-08-05T01:22:42.025Z,4.40
2022-08-05T01:26:02.758Z,4.80
2022-08-05T01:28:39.836Z,4.15
2022-08-05T01:31:17.953Z,4.50
2022-08-05T01:34:07.424Z,5.25
2022-08-05T01:36:47.112Z,4.75
2022-08-05T01:39:46.042Z,5.32
2022-08-05T01:42:11.962Z,5.18
2022-08-05T01:44:45.694Z,4.38
2022-08-05T01:47:30.506Z,4.68
2022-08-05T01:50:19.391Z,5.43
2022-08-05T01:53:02.728Z,4.65
2022-08-05T01:55:36.456Z,4.90
2022-08-05T01:58:15.546Z,6.07
2022-08-05T02:00:51.442Z,5.55
2022-08-05T02:03:40.073Z,8.25
2022-08-05T02:06:37.392Z,5.85
2022-08-05T02:09:05.189Z,4.38
2022-08-05T02:12:05.784Z,5.90
2022-08-05T02:15:12.454Z,5.25
2022-08-05T02:18:32.320Z,4.88
2022-08-05T02:20:49.347Z,5.35
2022-08-05T02:23:23.077Z,6.03
2022-08-05T02:25:54.503Z,5.25
2022-08-05T02:28:32.095Z,5.68
2022-08-05T02:31:34.855Z,5.50
2022-08-05T02:34:10.027Z,5.57
2022-08-05T02:36:44.535Z,6.03
2022-08-05T02:39:15.657Z,6.57
2022-08-05T02:42:01.010Z,5.75
2022-08-05T02:44:32.792Z,7.75
2022-08-05T02:47:02.862Z,6.40
2022-08-05T02:49:40.574Z,6.00
2022-08-05T02:52:30.148Z,6.13
2022-08-05T02:55:02.014Z,6.32
2022-08-05T02:58:11.718Z,6.20
2022-08-05T03:00:27.010Z,5.55
2022-08-05T03:02:59.921Z,5.25
2022-08-05T03:06:55.331Z,6.25
2022-08-05T03:08:26.991Z,5.18
2022-08-05T03:11:53.367Z,5.20
2022-08-05T03:13:51.915Z,4.25
2022-08-05T03:16:32.892Z,3.90
2022-08-05T03:21:48.948Z,5.63
2022-08-05T03:31:56.721Z,4.05
2022-08-05T03:34:26.425Z,3.75
2022-08-05T03:36:56.461Z,3.95
2022-08-05T03:39:26.859Z,4.10
2022-08-05T03:41:57.987Z,3.70
2022-08-05T03:44:29.017Z,3.95
2022-08-05T03:46:58.740Z,3.58
2022-08-05T03:49:31.193Z,3.83
2022-08-05T03:52:48.658Z,3.10
2022-08-05T03:56:03.960Z,3.67
2022-08-05T03:58:13.886Z,3.60
2022-08-05T04:00:51.567Z,3.30
2022-08-05T04:03:28.386Z,3.28
2022-08-05T04:06:00.641Z,3.33
2022-08-05T04:08:36.532Z,4.55
2022-08-05T04:11:08.575Z,3.88
2022-08-05T04:13:49.813Z,4.45
2022-08-05T04:16:24.343Z,3.90
2022-08-05T04:18:57.729Z,3.97
2022-08-05T04:22:09.469Z,3.92
2022-08-05T04:24:19.624Z,3.47
2022-08-05T04:26:52.888Z,4.07
2022-08-05T04:29:22.382Z,4.00
2022-08-05T04:31:52.517Z,4.30
2022-08-05T04:34:32.945Z,4.75
2022-08-05T04:37:05.699Z,4.85
2022-08-05T04:39:35.543Z,4.15
2022-08-05T04:42:05.213Z,3.95
2022-08-05T04:44:34.591Z,5.38
2022-08-05T04:47:09.778Z,4.63
2022-08-05T04:50:01.391Z,4.68
2022-08-05T04:52:33.405Z,4.40
2022-08-05T04:55:09.586Z,5.40
2022-08-05T04:57:47.507Z,5.88
2022-08-05T05:00:18.003Z,5.50
2022-08-05T05:02:47.406Z,6.03
2022-08-05T05:05:28.455Z,5.90
2022-08-05T05:08:02.638Z,5.13
2022-08-05T05:10:33.834Z,5.47
2022-08-05T05:13:03.960Z,4.63
2022-08-05T05:15:56.252Z,4.35
2022-08-05T05:18:31.361Z,3.60
2022-08-05T05:21:05.518Z,3.83
2022-08-05T05:24:01.948Z,3.70
2022-08-05T05:26:28.727Z,3.38
2022-08-05T05:29:02.612Z,4.32
2022-08-05T05:34:07.875Z,4.28
2022-08-05T05:36:37.505Z,4.53
2022-08-05T05:39:10.790Z,4.40
2022-08-05T05:41:42.703Z,3.80
2022-08-05T05:44:35.995Z,4.57
2022-08-05T05:47:04.234Z,4.18
2022-08-05T05:49:42.735Z,4.68
2022-08-05T05:52:13.344Z,5.45
2022-08-05T05:55:02.496Z,4.90
2022-08-05T05:57:51.909Z,4.65
2022-08-05T06:00:31.433Z,4.53
2022-08-05T06:03:39.855Z,5.30
2022-08-05T06:05:55.638Z,4.35
2022-08-05T06:08:32.531Z,3.42
2022-08-05T06:11:02.727Z,4.15
2022-08-05T06:13:40.896Z,3.80
2022-08-05T06:16:30.333Z,3.65
2022-08-05T06:19:05.864Z,4.80
2022-08-05T06:21:38.355Z,3.55
2022-08-05T06:24:14.762Z,3.53
2022-08-05T06:26:51.295Z,2.97
2022-08-05T06:29:25.410Z,3.45
2022-08-05T06:32:25.585Z,3.55
2022-08-05T06:35:00.116Z,3.20
2022-08-05T06:37:56.163Z,3.30
2022-08-05T06:40:27.944Z,3.42
2022-08-05T06:43:01.687Z,3.83
2022-08-05T06:45:44.580Z,4.60
2022-08-05T06:48:55.351Z,3.88
2022-08-05T06:51:21.819Z,4.18
2022-08-05T06:53:57.721Z,3.85
2022-08-05T06:56:27.895Z,4.32
2022-08-05T06:58:57.918Z,4.28
2022-08-05T07:01:32.187Z,6.35
2022-08-05T07:04:04.113Z,4.20
2022-08-05T07:06:33.946Z,4.25
2022-08-05T07:09:04.664Z,4.95
2022-08-05T07:11:36.950Z,4.57
2022-08-05T07:14:29.327Z,4.53
2022-08-05T07:18:00.304Z,4.35
2022-08-05T07:22:47.813Z,4.95
2022-08-05T07:25:54.165Z,4.50
2022-08-05T07:28:08.360Z,5.57
2022-08-05T07:30:41.670Z,5.10
2022-08-05T07:33:16.435Z,5.23
2022-08-05T07:36:02.054Z,4.60
2022-08-05T07:38:43.328Z,6.28
2022-08-05T07:42:13.532Z,5.20
2022-08-05T07:44:18.896Z,5.30
2022-08-05T07:46:50.451Z,6.18
2022-08-05T07:49:20.725Z,4.72
2022-08-05T07:51:54.548Z,5.75
2022-08-05T07:54:30.943Z,5.90
2022-08-05T07:57:22.390Z,6.50
2022-08-05T07:59:54.210Z,5.90
2022-08-05T08:02:30.898Z,5.78
2022-08-05T08:05:18.711Z,5.70
2022-08-05T08:07:59.145Z,5.70
2022-08-05T08:10:30.521Z,6.47
2022-08-05T08:13:01.583Z,6.13
2022-08-05T08:16:33.538Z,7.00
2022-08-05T08:18:21.248Z,6.68
2022-08-05T08:21:02.837Z,6.10
2022-08-05T08:26:26.552Z,6.10
2022-08-05T08:28:59.723Z,6.53
2022-08-05T08:31:48.330Z,5.90
2022-08-05T08:34:18.635Z,5.95
2022-08-05T08:36:54.763Z,5.60
2022-08-05T08:39:26.135Z,6.88
2022-08-05T08:41:59.806Z,5.80
2022-08-05T08:45:23.302Z,5.65
2022-08-05T08:48:07.648Z,5.60
2022-08-05T08:50:33.197Z,5.72
2022-08-05T08:56:04.083Z,4.90
2022-08-05T08:58:37.618Z,4.18
2022-08-05T09:01:15.870Z,3.80
2022-08-05T09:06:21.141Z,3.13
2022-08-05T09:08:53.589Z,3.17
2022-08-05T09:11:51.884Z,2.80
2022-08-05T09:14:56.546Z,3.38
2022-08-05T09:17:09.675Z,2.08
2022-08-05T09:20:02.782Z,2.50
2022-08-05T09:23:18.625Z,2.70
2022-08-05T09:26:09.848Z,2.20
2022-08-05T09:28:41.063Z,2.40
2022-08-05T09:32:39.163Z,2.00
2022-08-05T09:36:54.794Z,1.88
2022-08-05T09:39:41.935Z,1.83
2022-08-05T09:42:24.460Z,1.88
2022-08-05T09:47:56.467Z,1.73
2022-08-05T09:50:44.079Z,1.85
2022-08-05T09:53:25.706Z,3.40
2022-08-05T09:56:04.634Z,1.65
2022-08-05T09:58:34.433Z,1.60
2022-08-05T10:01:22.571Z,1.90
2022-08-05T10:04:10.395Z,1.50
2022-08-05T10:06:54.785Z,1.40
2022-08-05T10:09:29.925Z,1.65
2022-08-05T10:12:18.767Z,1.92
2022-08-05T10:15:20.389Z,1.88
2022-08-05T10:18:16.684Z,1.58
2022-08-05T10:20:50.790Z,1.70
2022-08-05T10:23:55.633Z,1.42
2022-08-05T10:26:19.168Z,1.73
2022-08-05T10:28:53.924Z,1.90
2022-08-05T10:34:16.941Z,2.00
2022-08-05T10:36:47.147Z,1.70
2022-08-05T10:39:25.090Z,1.90
2022-08-05T10:42:33.556Z,1.90
2022-08-05T10:45:21.399Z,2.03
2022-08-05T10:48:30.115Z,1.88
2022-08-05T10:51:01.131Z,1.85
2022-08-05T10:53:38.209Z,1.77
2022-08-05T10:56:21.478Z,1.50
2022-08-05T10:59:07.336Z,1.80
2022-08-05T11:01:54.560Z,1.17
2022-08-05T11:04:36.616Z,1.40
2022-08-05T11:07:11.998Z,1.67
2022-08-05T11:09:47.497Z,1.05
2022-08-05T11:12:42.284Z,1.38
2022-08-05T11:15:59.475Z,1.23
2022-08-05T11:18:34.119Z,1.20
2022-08-05T11:21:06.253Z,1.15
2022-08-05T11:24:04.787Z,1.08
2022-08-05T11:26:33.667Z,1.10
2022-08-05T11:29:12.812Z,0.70
2022-08-05T11:31:58.242Z,0.80
2022-08-05T11:34:52.095Z,0.88
2022-08-05T11:38:29.747Z,1.27
2022-08-05T11:41:12.785Z,0.70
2022-08-05T11:44:05.640Z,0.70
2022-08-05T11:47:09.819Z,0.65
2022-08-05T11:49:28.029Z,1.85
2022-08-05T11:51:58.012Z,1.15
2022-08-05T11:54:35.070Z,0.70
2022-08-05T11:57:08.270Z,0.50
2022-08-05T11:59:54.445Z,0.90
2022-08-05T12:02:33.110Z,0.50
2022-08-05T12:05:17.945Z,1.52
2022-08-05T12:08:10.270Z,1.25
2022-08-05T12:10:45.186Z,0.80
2022-08-05T12:13:47.633Z,0.60
2022-08-05T12:16:20.158Z,0.70
2022-08-05T12:18:56.298Z,0.90
2022-08-05T12:21:31.923Z,0.68
2022-08-05T12:24:06.710Z,0.75
2022-08-05T12:26:44.142Z,0.98
2022-08-05T12:29:29.048Z,0.85
2022-08-05T12:32:09.828Z,0.50
2022-08-05T12:34:40.531Z,0.80
2022-08-05T12:37:17.271Z,0.57
2022-08-05T12:39:53.969Z,0.55
2022-08-05T12:42:25.373Z,1.00
2022-08-05T12:44:54.900Z,0.70
2022-08-05T12:47:32.060Z,0.50
2022-08-05T12:50:14.934Z,0.70
2022-08-05T12:52:45.340Z,0.85
2022-08-05T12:55:25.452Z,0.70
2022-08-05T12:58:38.494Z,0.52
2022-08-05T13:02:02.594Z,1.00
2022-08-05T13:03:45.459Z,0.60
2022-08-05T13:06:19.932Z,0.63
2022-08-05T13:08:52.151Z,0.60
2022-08-05T13:12:02.794Z,0.57
2022-08-05T13:14:36.591Z,0.75
2022-08-05T13:17:12.110Z,0.50
2022-08-05T13:19:52.133Z,0.70
2022-08-05T13:22:28.351Z,0.77
2022-08-05T13:25:05.715Z,0.60
2022-08-05T13:27:56.246Z,0.75
2022-08-05T13:30:34.757Z,0.80
2022-08-05T13:33:06.835Z,0.70
2022-08-05T13:35:47.504Z,0.60
2022-08-05T13:38:30.958Z,0.60
2022-08-05T13:41:05.943Z,0.40
2022-08-05T13:43:43.571Z,0.65
2022-08-05T13:46:44.392Z,0.90
2022-08-05T13:49:13.692Z,0.68
2022-08-05T13:51:46.352Z,0.82
2022-08-05T13:54:17.171Z,0.60
2022-08-05T13:56:52.029Z,0.68
2022-08-05T13:59:24.328Z,0.68
2022-08-05T14:01:57.754Z,0.55
2022-08-05T14:04:49.769Z,0.60
2022-08-05T14:08:00.611Z,0.47
2022-08-05T14:10:29.246Z,0.80
2022-08-05T14:13:01.351Z,0.55
2022-08-05T14:16:07.313Z,0.60
2022-08-05T14:18:23.215Z,0.80
2022-08-05T14:20:54.886Z,0.88
2022-08-05T14:23:28.085Z,0.63
2022-08-05T14:26:06.340Z,0.60
2022-08-05T14:28:35.873Z,0.88
2022-08-05T14:32:02.164Z,0.40
2022-08-05T14:34:12.143Z,0.57
2022-08-05T14:36:43.268Z,0.90
2022-08-05T14:39:23.158Z,0.57
2022-08-05T14:42:15.967Z,0.50
2022-08-05T14:44:42.620Z,0.60
2022-08-05T14:47:12.244Z,0.45
2022-08-05T14:49:58.539Z,0.90
2022-08-05T14:52:51.725Z,0.93
2022-08-05T14:55:18.620Z,0.63
2022-08-05T14:57:54.275Z,0.70
2022-08-05T15:00:29.321Z,0.55
2022-08-05T15:02:59.480Z,0.50
2022-08-05T15:05:29.973Z,0.60
2022-08-05T15:08:37.952Z,0.80
2022-08-05T15:11:08.603Z,0.88
2022-08-05T15:13:46.001Z,0.77
2022-08-05T15:16:19.600Z,0.57
2022-08-05T15:21:21.929Z,0.60
2022-08-05T15:23:53.763Z,0.70
2022-08-05T15:26:31.954Z,0.60
2022-08-05T15:29:02.637Z,0.70
2022-08-05T15:31:34.861Z,0.85
2022-08-05T15:34:32.337Z,1.30
2022-08-05T15:36:53.933Z,0.47
2022-08-05T15:41:00.018Z,0.70
2022-08-05T15:42:55.124Z,0.73
2022-08-05T15:45:02.526Z,0.70
2022-08-05T15:47:32.029Z,0.63
2022-08-05T15:50:06.165Z,0.73
2022-08-05T15:52:53.963Z,0.55
2022-08-05T15:56:03.204Z,0.75
2022-08-05T15:58:16.547Z,0.70
2022-08-05T16:01:04.466Z,0.80
2022-08-05T16:03:35.960Z,1.02
2022-08-05T16:06:12.116Z,0.70
2022-08-05T16:08:41.932Z,0.80
2022-08-05T16:11:13.337Z,0.63
2022-08-05T16:13:43.271Z,0.60
2022-08-05T16:16:12.562Z,0.95
2022-08-05T16:18:51.967Z,1.00
2022-08-05T16:21:59.347Z,0.38
2022-08-05T16:24:35.826Z,0.60
2022-08-05T16:27:04.305Z,1.27
2022-08-05T16:29:37.385Z,0.80
2022-08-05T16:32:09.983Z,0.70
2022-08-05T16:34:41.723Z,0.57
2022-08-05T16:40:05.702Z,0.30
2022-08-05T16:42:37.260Z,0.43
2022-08-05T16:46:06.893Z,0.65
2022-08-05T16:48:02.592Z,0.50
2022-08-05T16:50:32.718Z,0.85
2022-08-05T16:53:12.612Z,0.77
2022-08-05T16:55:51.879Z,0.35
2022-08-05T16:58:21.278Z,0.57
2022-08-05T17:00:54.708Z,0.65
2022-08-05T17:03:24.474Z,0.60
2022-08-05T17:05:59.585Z,0.80
2022-08-05T17:08:36.227Z,0.70
2022-08-05T17:11:23.498Z,0.50
2022-08-05T17:14:05.330Z,0.75
2022-08-05T17:16:40.468Z,0.50
2022-08-05T17:19:10.890Z,0.80
2022-08-05T17:21:40.859Z,0.90
2022-08-05T17:24:19.324Z,0.65
2022-08-05T17:27:01.107Z,0.82
2022-08-05T17:29:33.059Z,0.70
2022-08-05T17:32:03.491Z,0.63
2022-08-05T17:34:34.883Z,0.60
2022-08-05T17:37:04.731Z,0.40
2022-08-05T17:39:55.220Z,1.35
2022-08-05T17:42:30.051Z,0.57
2022-08-05T17:45:08.060Z,0.70
2022-08-05T17:47:42.615Z,0.98
2022-08-05T17:50:12.667Z,0.60
2022-08-05T17:52:53.358Z,0.77
2022-08-05T17:58:04.861Z,1.15
2022-08-05T18:03:59.803Z,0.80
2022-08-05T18:06:11.110Z,0.80
2022-08-05T18:08:44.764Z,0.60
2022-08-05T18:11:24.645Z,0.85
2022-08-05T18:14:07.129Z,0.85
2022-08-05T18:16:51.017Z,0.82
2022-08-05T18:19:23.261Z,0.80
2022-08-05T18:22:08.775Z,1.15
2022-08-05T18:24:39.964Z,0.73
2022-08-05T18:27:12.373Z,1.15
2022-08-05T18:29:42.694Z,0.95
2022-08-05T18:32:19.962Z,1.52
2022-08-05T18:34:49.268Z,0.68
2022-08-05T18:37:34.426Z,1.20
2022-08-05T18:40:34.187Z,1.25
2022-08-05T18:42:58.442Z,0.75
2022-08-05T18:45:41.525Z,0.80
2022-08-05T18:48:30.552Z,0.68
2022-08-05T18:52:05.612Z,0.68
2022-08-05T18:54:04.078Z,1.00
2022-08-05T18:56:33.481Z,0.73
2022-08-05T18:59:03.224Z,0.73
2022-08-05T19:01:58.032Z,0.90
2022-08-05T19:04:29.359Z,1.35
2022-08-05T19:06:59.139Z,1.00
2022-08-05T19:09:28.528Z,1.75
2022-08-05T19:12:10.584Z,0.98
2022-08-05T19:15:00.522Z,1.98
2022-08-05T19:17:59.148Z,1.08
2022-08-05T19:20:20.982Z,1.45
2022-08-05T19:22:50.252Z,0.98
2022-08-05T19:25:21.567Z,1.00
2022-08-05T19:27:59.645Z,0.88
2022-08-05T19:30:29.414Z,0.85
2022-08-05T19:32:58.787Z,1.00
2022-08-05T19:35:56.530Z,0.75
2022-08-05T19:38:22.713Z,0.93
2022-08-05T19:40:56.087Z,0.98
2022-08-05T19:44:06.823Z,1.02
2022-08-05T19:46:16.786Z,0.93
2022-08-05T19:49:01.285Z,1.00
2022-08-05T19:52:08.810Z,1.13
2022-08-05T19:54:29.508Z,0.75
2022-08-05T19:57:02.663Z,1.00
2022-08-05T19:59:55.935Z,1.05
2022-08-05T20:02:31.457Z,1.00
2022-08-05T20:05:04.655Z,1.20
2022-08-05T20:07:46.662Z,1.48
2022-08-05T20:10:22.400Z,0.80
2022-08-05T20:12:55.139Z,0.90
2022-08-05T20:15:51.723Z,1.00
2022-08-05T20:18:33.156Z,1.98
2022-08-05T20:21:06.704Z,1.27
2022-08-05T20:23:50.293Z,1.20
2022-08-05T20:26:24.739Z,1.30
2022-08-05T20:31:42.169Z,1.10
2022-08-05T20:34:18.696Z,1.15
2022-08-05T20:36:49.453Z,1.27
2022-08-05T20:39:19.437Z,1.92
2022-08-05T20:41:49.476Z,1.40
2022-08-05T20:44:30.110Z,0.90
2022-08-05T20:47:06.626Z,1.35
2022-08-05T20:49:38.072Z,1.17
2022-08-05T20:52:10.606Z,1.10
2022-08-05T20:54:59.088Z,1.00
2022-08-05T20:57:43.009Z,1.63
2022-08-05T21:00:34.990Z,1.20
2022-08-05T21:03:08.193Z,1.35
2022-08-05T21:05:53.464Z,1.38
2022-08-05T21:08:28.023Z,1.80
2022-08-05T21:11:12.107Z,1.45
2022-08-05T21:13:55.591Z,1.77
2022-08-05T21:16:31.010Z,1.30
2022-08-05T21:19:03.465Z,1.77
2022-08-05T21:21:39.830Z,1.05
2022-08-05T21:24:16.943Z,1.55
2022-08-05T21:26:53.642Z,1.65
2022-08-05T21:29:32.090Z,1.13
2022-08-05T21:32:02.857Z,1.50
2022-08-05T21:34:33.001Z,1.48
2022-08-05T21:37:04.867Z,1.20
2022-08-05T21:39:34.907Z,1.63
2022-08-05T21:42:28.905Z,1.58
2022-08-05T21:45:00.082Z,1.85
2022-08-05T21:47:54.967Z,2.05
2022-08-05T21:50:19.603Z,1.50
2022-08-05T21:55:43.013Z,1.75
2022-08-05T21:58:11.794Z,1.60
2022-08-05T22:00:41.488Z,1.50
2022-08-05T22:03:20.695Z,1.98
2022-08-05T22:06:09.838Z,1.92
2022-08-05T22:08:42.836Z,1.70
2022-08-05T22:11:15.727Z,1.98
2022-08-05T22:14:34.437Z,1.35
2022-08-05T22:16:51.921Z,1.50
2022-08-05T22:20:01.069Z,1.58
2022-08-05T22:22:15.612Z,2.75
2022-08-05T22:24:58.076Z,1.63
2022-08-05T22:28:10.258Z,1.17
2022-08-05T22:30:32.463Z,2.33
2022-08-05T22:33:15.722Z,1.75
2022-08-05T22:35:49.235Z,2.10
2022-08-05T22:38:19.871Z,1.83
2022-08-05T22:40:54.983Z,1.52
2022-08-05T22:43:37.106Z,1.50
2022-08-05T22:46:13.035Z,1.80
2022-08-05T22:48:47.294Z,2.15
2022-08-05T22:51:23.236Z,1.80
2022-08-05T22:54:06.607Z,2.47
2022-08-05T22:56:36.619Z,1.98
2022-08-05T22:59:43.692Z,2.08
2022-08-05T23:02:05.725Z,2.33
2022-08-05T23:04:37.564Z,1.73
2022-08-05T23:07:07.272Z,2.25
2022-08-05T23:09:58.230Z,2.55
2022-08-05T23:12:28.654Z,2.20
2022-08-05T23:14:58.410Z,1.73
2022-08-05T23:17:34.937Z,2.03
2022-08-05T23:20:17.451Z,2.65
2022-08-05T23:22:48.691Z,1.98
2022-08-05T23:25:52.196Z,2.47
2022-08-05T23:28:09.362Z,2.33
2022-08-05T23:30:52.798Z,2.20
2022-08-05T23:34:02.678Z,1.77
2022-08-05T23:36:14.126Z,2.10
2022-08-05T23:38:43.910Z,2.28
2022-08-05T23:41:13.611Z,2.25
2022-08-05T23:44:03.647Z,2.10
2022-08-05T23:46:33.424Z,2.80
2022-08-05T23:49:17.091Z,2.10
2022-08-05T23:52:01.117Z,2.20
2022-08-05T23:54:38.113Z,2.38
2022-08-05T23:57:09.228Z,1.85
